Bothwell, Utah
Current Conditions -  °F | °C
As of 10:35 PM on Thursday 30 Oct 2014 (Local Time) from KBMC Reporting Station
Clear Clear  
Wind Chill: 48°   Ceiling: Unl
Heat Index: 48°   Visibility: 10mi
Dew Point: 37°   Wind: 0mph
Humidity: 64%   Direction: NA
Pressure: 30.1"   Gusts: NA
Location:  41.6836°N, 112.26°W
Report Text: KBMC 310435Z AUTO 00000KT 10SM CLR 09/03 A3010 RMK AO1 T00910026
Loading
Personal Weather Stations






























Interactive Weather Map
Tropical Storm Tracking
New forecast layout! Learn more

10-Day Weather Forecast

Advertisements
Track Severe Weather on mobile